createdAt,value
2018-12-13T00:00:17.481Z,23.20
2018-12-13T00:01:17.461Z,24.50
2018-12-13T00:02:17.455Z,24.70
2018-12-13T00:03:17.469Z,25.00
2018-12-13T00:04:17.435Z,22.00
2018-12-13T00:05:17.422Z,26.30
2018-12-13T00:06:17.409Z,23.00
2018-12-13T00:07:17.404Z,27.70
2018-12-13T00:08:17.401Z,27.10
2018-12-13T00:09:17.370Z,25.40
2018-12-13T00:10:17.372Z,24.80
2018-12-13T00:11:17.347Z,25.40
2018-12-13T00:12:17.352Z,23.70
2018-12-13T00:13:17.347Z,25.30
2018-12-13T00:14:17.322Z,28.70
2018-12-13T00:15:17.304Z,29.60
2018-12-13T00:16:17.297Z,29.50
2018-12-13T00:17:17.287Z,29.50
2018-12-13T00:18:17.286Z,30.40
2018-12-13T00:19:17.272Z,30.20
2018-12-13T00:20:17.261Z,28.80
2018-12-13T00:21:17.263Z,28.80
2018-12-13T00:22:17.243Z,30.10
2018-12-13T00:23:17.240Z,29.80
2018-12-13T00:24:17.218Z,32.70
2018-12-13T00:25:17.198Z,28.30
2018-12-13T00:26:17.202Z,30.40
2018-12-13T00:27:17.175Z,31.10
2018-12-13T00:28:17.178Z,31.60
2018-12-13T00:29:17.150Z,32.50
2018-12-13T00:30:17.148Z,30.40
2018-12-13T00:31:17.134Z,33.20
2018-12-13T00:32:17.122Z,34.40
2018-12-13T00:33:17.137Z,35.00
2018-12-13T00:34:17.103Z,36.50
2018-12-13T00:35:17.089Z,38.50
2018-12-13T00:36:17.087Z,39.10
2018-12-13T00:37:17.074Z,33.70
2018-12-13T00:38:17.066Z,42.10
2018-12-13T00:39:17.037Z,43.90
2018-12-13T00:40:17.026Z,39.60
2018-12-13T00:41:17.024Z,39.10
2018-12-13T00:42:17.014Z,41.40
2018-12-13T00:43:17.049Z,40.70
2018-12-13T00:44:17.015Z,43.60
2018-12-13T00:45:16.991Z,40.90
2018-12-13T00:46:16.985Z,49.20
2018-12-13T00:47:17.045Z,42.10
2018-12-13T00:48:17.004Z,43.80
2018-12-13T00:49:16.991Z,45.30
2018-12-13T00:50:16.962Z,42.60
2018-12-13T00:51:16.951Z,47.60
2018-12-13T00:52:16.993Z,47.60
2018-12-13T00:53:16.992Z,52.20
2018-12-13T00:54:17.026Z,49.30
2018-12-13T00:55:16.997Z,44.80
2018-12-13T00:56:16.876Z,46.20
2018-12-13T00:57:16.847Z,49.00
2018-12-13T00:58:16.845Z,46.60
2018-12-13T00:59:16.893Z,48.40
2018-12-13T01:00:16.826Z,59.30
2018-12-13T01:01:16.818Z,57.10
2018-12-13T01:02:16.796Z,53.90
2018-12-13T01:03:16.793Z,51.30
2018-12-13T01:04:16.808Z,57.70
2018-12-13T01:05:16.769Z,59.50
2018-12-13T01:06:16.763Z,62.70
2018-12-13T01:07:16.747Z,59.60
2018-12-13T01:08:16.737Z,61.40
2018-12-13T01:09:16.736Z,58.90
2018-12-13T01:10:16.717Z,59.90
2018-12-13T01:11:16.711Z,66.70
2018-12-13T01:12:16.695Z,66.40
2018-12-13T01:13:16.681Z,65.90
2018-12-13T01:14:16.686Z,68.30
2018-12-13T01:15:16.662Z,73.00
2018-12-13T01:16:16.640Z,71.50
2018-12-13T01:17:16.639Z,73.10
2018-12-13T01:18:16.625Z,73.00
2018-12-13T01:19:16.621Z,75.70
2018-12-13T01:20:16.597Z,78.70
2018-12-13T01:21:20.548Z,84.80
2018-12-13T01:22:16.579Z,79.10
2018-12-13T01:23:16.580Z,79.40
2018-12-13T01:24:16.584Z,86.80
2018-12-13T01:25:16.560Z,86.00
2018-12-13T01:26:16.541Z,85.20
2018-12-13T01:27:16.530Z,91.00
2018-12-13T01:28:16.515Z,91.80
2018-12-13T01:29:16.537Z,88.00
2018-12-13T01:30:16.497Z,98.40
2018-12-13T01:31:16.481Z,93.40
2018-12-13T01:32:16.473Z,90.00
2018-12-13T01:33:16.459Z,99.10
2018-12-13T01:34:16.454Z,90.00
2018-12-13T01:35:16.457Z,92.70
2018-12-13T01:36:16.424Z,92.70
2018-12-13T01:37:16.411Z,90.40
2018-12-13T01:38:16.413Z,95.90
2018-12-13T01:39:16.390Z,95.00
2018-12-13T01:40:16.406Z,90.50
2018-12-13T01:41:16.366Z,90.80
2018-12-13T01:42:16.372Z,93.40
2018-12-13T01:43:16.350Z,98.70
2018-12-13T01:44:16.357Z,98.90
2018-12-13T01:45:16.341Z,99.80
2018-12-13T01:46:16.317Z,92.90
2018-12-13T01:47:16.312Z,92.40
2018-12-13T01:48:16.301Z,93.50
2018-12-13T01:49:16.288Z,96.50
2018-12-13T01:50:16.287Z,88.70
2018-12-13T01:51:16.269Z,94.00
2018-12-13T01:52:16.249Z,90.00
2018-12-13T01:53:16.235Z,86.40
2018-12-13T01:54:16.222Z,91.10
2018-12-13T01:55:16.229Z,85.50
2018-12-13T01:56:16.206Z,87.40
2018-12-13T01:57:16.210Z,93.00
2018-12-13T01:58:16.194Z,87.20
2018-12-13T01:59:16.183Z,88.60
2018-12-13T02:00:16.172Z,85.10
2018-12-13T02:01:16.151Z,91.80
2018-12-13T02:02:16.143Z,85.40
2018-12-13T02:03:16.134Z,88.30
2018-12-13T02:04:16.124Z,82.40
2018-12-13T02:05:16.128Z,90.30
2018-12-13T02:06:16.095Z,89.40
2018-12-13T02:07:16.109Z,85.20
2018-12-13T02:08:16.079Z,90.50
2018-12-13T02:09:16.073Z,87.80
2018-12-13T02:10:16.077Z,87.10
2018-12-13T02:11:16.117Z,84.70
2018-12-13T02:12:16.041Z,84.70
2018-12-13T02:13:16.022Z,89.60
2018-12-13T02:14:16.023Z,81.70
2018-12-13T02:15:16.012Z,92.70
2018-12-13T02:16:16.016Z,86.70
2018-12-13T02:17:15.980Z,86.00
2018-12-13T02:18:15.970Z,84.80
2018-12-13T02:19:15.954Z,86.80
2018-12-13T02:20:15.953Z,85.70
2018-12-13T02:21:15.990Z,87.40
2018-12-13T02:22:15.921Z,80.70
2018-12-13T02:23:15.911Z,84.20
2018-12-13T02:24:15.910Z,81.70
2018-12-13T02:25:15.895Z,85.90
2018-12-13T02:26:15.911Z,76.70
2018-12-13T02:27:15.862Z,77.20
2018-12-13T02:28:15.862Z,75.20
2018-12-13T02:29:15.842Z,73.20
2018-12-13T02:30:15.838Z,80.00
2018-12-13T02:31:15.834Z,81.40
2018-12-13T02:32:15.820Z,79.30
2018-12-13T02:33:15.811Z,77.30
2018-12-13T02:34:15.797Z,80.70
2018-12-13T02:35:15.790Z,81.80
2018-12-13T02:36:15.796Z,79.10
2018-12-13T02:37:15.756Z,75.00
2018-12-13T02:38:15.760Z,72.40
2018-12-13T02:39:15.736Z,75.50
2018-12-13T02:40:15.742Z,79.30
2018-12-13T02:41:15.740Z,69.00
2018-12-13T02:42:15.715Z,68.70
2018-12-13T02:43:15.683Z,74.20
2018-12-13T02:44:15.686Z,71.40
2018-12-13T02:45:15.673Z,70.90
2018-12-13T02:46:15.665Z,73.20
2018-12-13T02:47:15.650Z,73.10
2018-12-13T02:48:15.649Z,73.30
2018-12-13T02:49:15.633Z,81.60
2018-12-13T02:50:15.619Z,79.00
2018-12-13T02:51:15.623Z,79.60
2018-12-13T02:52:15.596Z,74.70
2018-12-13T02:53:15.586Z,78.60
2018-12-13T02:54:15.577Z,78.50
2018-12-13T02:55:15.565Z,78.00
2018-12-13T02:56:15.566Z,78.60
2018-12-13T02:57:15.542Z,71.20
2018-12-13T02:58:15.521Z,75.10
2018-12-13T02:59:15.529Z,74.90
2018-12-13T03:00:15.525Z,68.00
2018-12-13T03:01:15.525Z,71.40
2018-12-13T03:02:15.483Z,72.10
2018-12-13T03:03:15.480Z,69.20
2018-12-13T03:04:15.464Z,67.00
2018-12-13T03:05:15.453Z,68.20
2018-12-13T03:06:15.441Z,66.30
2018-12-13T03:07:15.451Z,71.10
2018-12-13T03:08:15.415Z,71.90
2018-12-13T03:09:15.414Z,67.10
2018-12-13T03:10:15.450Z,65.50
2018-12-13T03:11:15.389Z,71.20
2018-12-13T03:12:15.404Z,65.60
2018-12-13T03:13:15.371Z,63.40
2018-12-13T03:14:15.354Z,68.20
2018-12-13T03:15:15.352Z,65.20
2018-12-13T03:16:15.343Z,64.50
2018-12-13T03:17:15.332Z,68.30
2018-12-13T03:18:15.312Z,62.40
2018-12-13T03:19:15.302Z,63.20
2018-12-13T03:20:15.313Z,61.70
2018-12-13T03:21:15.287Z,62.60
2018-12-13T03:22:15.289Z,63.30
2018-12-13T03:23:15.269Z,58.70
2018-12-13T03:24:15.244Z,59.30
2018-12-13T03:25:15.236Z,63.80
2018-12-13T03:26:15.232Z,62.00
2018-12-13T03:27:15.224Z,64.00
2018-12-13T03:28:15.209Z,60.10
2018-12-13T03:29:15.193Z,54.40
2018-12-13T03:30:15.197Z,54.50
2018-12-13T03:31:15.177Z,53.60
2018-12-13T03:32:15.182Z,60.30
2018-12-13T03:33:15.155Z,57.30
2018-12-13T03:34:15.139Z,57.00
2018-12-13T03:35:15.130Z,56.20
2018-12-13T03:36:15.111Z,60.80
2018-12-13T03:37:20.533Z,59.70
2018-12-13T03:38:16.103Z,55.20
2018-12-13T03:39:15.096Z,54.00
2018-12-13T03:40:15.074Z,57.40
2018-12-13T03:41:15.070Z,56.40
2018-12-13T03:42:15.059Z,55.70
2018-12-13T03:43:15.115Z,61.30
2018-12-13T03:44:15.033Z,55.40
2018-12-13T03:45:15.033Z,60.70
2018-12-13T03:46:15.017Z,58.60
2018-12-13T03:47:15.019Z,59.20
2018-12-13T03:48:14.980Z,62.10
2018-12-13T03:49:14.988Z,59.90
2018-12-13T03:50:14.966Z,63.10
2018-12-13T03:51:14.953Z,58.50
2018-12-13T03:52:14.960Z,58.70
2018-12-13T03:53:14.935Z,55.70
2018-12-13T03:54:14.924Z,55.90
2018-12-13T03:55:14.906Z,49.60
2018-12-13T03:56:14.908Z,57.60
2018-12-13T03:57:14.922Z,58.10
2018-12-13T03:58:14.884Z,53.50
2018-12-13T03:59:14.871Z,53.80
2018-12-13T04:00:14.888Z,52.70
2018-12-13T04:01:14.864Z,56.80
2018-12-13T04:02:14.834Z,58.70
2018-12-13T04:03:14.839Z,55.70
2018-12-13T04:04:14.817Z,57.70
2018-12-13T04:05:14.798Z,57.70
2018-12-13T04:06:14.797Z,58.00
2018-12-13T04:07:14.775Z,67.90
2018-12-13T04:08:14.796Z,61.60
2018-12-13T04:09:14.763Z,58.50
2018-12-13T04:10:14.765Z,65.70
2018-12-13T04:11:14.754Z,60.90
2018-12-13T04:12:14.725Z,63.70
2018-12-13T04:13:14.737Z,61.50
2018-12-13T04:14:14.705Z,64.00
2018-12-13T04:15:14.688Z,62.70
2018-12-13T04:16:14.682Z,61.10
2018-12-13T04:17:14.687Z,61.90
2018-12-13T04:18:14.675Z,65.10
2018-12-13T04:19:14.643Z,64.40
2018-12-13T04:20:14.640Z,70.20
2018-12-13T04:21:14.627Z,63.00
2018-12-13T04:22:14.628Z,61.00
2018-12-13T04:23:14.615Z,56.20
2018-12-13T04:24:14.597Z,59.90
2018-12-13T04:25:14.580Z,64.90
2018-12-13T04:26:14.599Z,58.40
2018-12-13T04:27:14.558Z,57.00
2018-12-13T04:28:14.580Z,58.00
2018-12-13T04:29:14.538Z,57.40
2018-12-13T04:30:14.545Z,57.30
2018-12-13T04:31:14.529Z,58.90
2018-12-13T04:32:14.522Z,59.40
2018-12-13T04:33:14.523Z,58.30
2018-12-13T04:34:14.506Z,58.70
2018-12-13T04:35:14.470Z,58.10
2018-12-13T04:36:14.460Z,53.90
2018-12-13T04:37:14.455Z,56.70
2018-12-13T04:38:14.442Z,58.70
2018-12-13T04:39:14.439Z,58.90
2018-12-13T04:40:14.424Z,57.80
2018-12-13T04:41:14.408Z,55.10
2018-12-13T04:42:14.401Z,60.50
2018-12-13T04:43:14.388Z,58.40
2018-12-13T04:44:14.386Z,62.80
2018-12-13T04:45:14.362Z,58.40
2018-12-13T04:46:14.356Z,57.30
2018-12-13T04:47:14.342Z,62.60
2018-12-13T04:48:14.330Z,62.90
2018-12-13T04:49:14.335Z,61.40
2018-12-13T04:50:14.302Z,63.40
2018-12-13T04:51:14.309Z,58.90
2018-12-13T04:52:14.304Z,61.20
2018-12-13T04:53:14.286Z,64.60
2018-12-13T04:54:14.295Z,64.90
2018-12-13T04:55:14.252Z,64.30
2018-12-13T04:56:14.265Z,60.80
2018-12-13T04:57:14.254Z,60.90
2018-12-13T04:58:14.226Z,64.10
2018-12-13T04:59:14.230Z,62.80
2018-12-13T05:00:14.203Z,63.30
2018-12-13T05:01:14.190Z,60.80
2018-12-13T05:02:14.184Z,63.40
2018-12-13T05:03:14.181Z,68.90
2018-12-13T05:04:14.193Z,64.10
2018-12-13T05:05:14.166Z,65.00
2018-12-13T05:06:14.137Z,67.60
2018-12-13T05:07:14.123Z,64.70
2018-12-13T05:08:14.119Z,65.60
2018-12-13T05:09:14.137Z,64.60
2018-12-13T05:10:14.097Z,64.70
2018-12-13T05:11:14.085Z,64.50
2018-12-13T05:12:14.077Z,65.40
2018-12-13T05:13:14.064Z,64.80
2018-12-13T05:14:14.077Z,62.50
2018-12-13T05:15:14.035Z,63.00
2018-12-13T05:16:14.022Z,60.90
2018-12-13T05:17:14.019Z,67.40
2018-12-13T05:18:14.016Z,63.70
2018-12-13T05:19:14.006Z,61.40
2018-12-13T05:20:13.997Z,62.60
2018-12-13T05:21:13.977Z,56.50
2018-12-13T05:22:13.965Z,59.10
2018-12-13T05:23:14.016Z,63.30
2018-12-13T05:24:13.932Z,65.20
2018-12-13T05:25:13.943Z,62.30
2018-12-13T05:26:13.911Z,63.40
2018-12-13T05:27:13.969Z,61.60
2018-12-13T05:28:13.893Z,64.90
2018-12-13T05:29:13.887Z,62.40
2018-12-13T05:30:13.894Z,65.00
2018-12-13T05:31:13.867Z,69.10
2018-12-13T05:32:13.853Z,67.30
2018-12-13T05:33:13.840Z,62.80
2018-12-13T05:34:13.836Z,60.30
2018-12-13T05:35:13.837Z,63.40
2018-12-13T05:36:13.831Z,62.80
2018-12-13T05:37:13.809Z,57.50
2018-12-13T05:38:13.789Z,59.10
2018-12-13T05:39:13.798Z,56.80
2018-12-13T05:40:13.795Z,63.00
2018-12-13T05:41:13.752Z,60.30
2018-12-13T05:42:13.743Z,59.10
2018-12-13T05:43:13.741Z,61.00
2018-12-13T05:44:13.713Z,62.70
2018-12-13T05:45:13.719Z,59.60
2018-12-13T05:46:13.723Z,61.00
2018-12-13T05:47:13.697Z,61.30
2018-12-13T05:48:13.674Z,57.70
2018-12-13T05:49:13.664Z,57.80
2018-12-13T05:50:13.692Z,62.60
2018-12-13T05:51:13.646Z,65.20
2018-12-13T05:52:13.649Z,60.40
2018-12-13T05:53:13.633Z,63.20
2018-12-13T05:54:13.607Z,62.00
2018-12-13T05:55:13.623Z,62.80
2018-12-13T05:56:13.599Z,61.40
2018-12-13T05:57:13.573Z,59.50
2018-12-13T05:58:13.571Z,62.70
2018-12-13T05:59:13.559Z,61.30
2018-12-13T06:00:13.556Z,61.00
2018-12-13T06:01:13.547Z,60.30
2018-12-13T06:02:13.526Z,64.80
2018-12-13T06:03:13.520Z,64.10
2018-12-13T06:04:13.507Z,63.80
2018-12-13T06:05:13.512Z,62.80
2018-12-13T06:06:13.493Z,62.40
2018-12-13T06:07:13.472Z,60.10
2018-12-13T06:08:13.471Z,64.30
2018-12-13T06:09:13.450Z,65.20
2018-12-13T06:10:13.480Z,66.30
2018-12-13T06:11:13.442Z,64.90
2018-12-13T06:12:13.418Z,64.30
2018-12-13T06:13:13.408Z,64.60
2018-12-13T06:14:13.401Z,67.70
2018-12-13T06:15:13.396Z,64.10
2018-12-13T06:16:13.382Z,65.10
2018-12-13T06:17:13.380Z,69.60
2018-12-13T06:18:13.346Z,66.00
2018-12-13T06:19:13.340Z,63.00
2018-12-13T06:20:13.370Z,67.40
2018-12-13T06:21:13.319Z,67.80
2018-12-13T06:22:13.304Z,66.60
2018-12-13T06:23:13.310Z,67.10
2018-12-13T06:24:13.334Z,73.40
2018-12-13T06:25:13.275Z,74.80
2018-12-13T06:26:13.279Z,72.00
2018-12-13T06:27:13.249Z,79.30
2018-12-13T06:28:13.246Z,76.40
2018-12-13T06:29:13.235Z,79.40
2018-12-13T06:30:13.251Z,81.60
2018-12-13T06:31:13.224Z,83.90
2018-12-13T06:32:13.207Z,75.00
2018-12-13T06:33:14.180Z,77.80
2018-12-13T06:34:13.180Z,81.30
2018-12-13T06:35:13.182Z,73.90
2018-12-13T06:36:13.176Z,75.70
2018-12-13T06:37:13.158Z,75.50
2018-12-13T06:38:13.128Z,75.30
2018-12-13T06:39:13.123Z,72.00
2018-12-13T06:40:15.650Z,72.90
2018-12-13T06:41:13.124Z,74.20
2018-12-13T06:42:13.098Z,73.60
2018-12-13T06:43:13.083Z,66.60
2018-12-13T06:44:13.068Z,73.40
2018-12-13T06:45:13.075Z,68.40
2018-12-13T06:46:13.070Z,73.10
2018-12-13T06:47:13.072Z,76.60
2018-12-13T06:48:13.057Z,68.50
2018-12-13T06:49:13.012Z,70.70
2018-12-13T06:50:13.029Z,70.70
2018-12-13T06:51:13.020Z,68.50
2018-12-13T06:52:13.001Z,72.90
2018-12-13T06:53:12.984Z,71.50
2018-12-13T06:54:12.962Z,70.30
2018-12-13T06:55:12.955Z,67.90
2018-12-13T06:56:12.962Z,72.00
2018-12-13T06:57:12.944Z,74.80
2018-12-13T06:58:12.922Z,72.60
2018-12-13T06:59:13.042Z,73.00
2018-12-13T07:00:12.899Z,68.10
2018-12-13T07:01:12.913Z,65.70
2018-12-13T07:02:12.960Z,65.40
2018-12-13T07:03:12.872Z,64.40
2018-12-13T07:04:12.858Z,68.80
2018-12-13T07:05:12.849Z,65.60
2018-12-13T07:06:12.857Z,59.90
2018-12-13T07:07:12.814Z,63.30
2018-12-13T07:08:12.811Z,59.10
2018-12-13T07:09:12.799Z,62.40
2018-12-13T07:10:12.800Z,65.10
2018-12-13T07:11:12.817Z,62.30
2018-12-13T07:12:12.766Z,57.90
2018-12-13T07:13:12.765Z,59.40
2018-12-13T07:14:12.748Z,57.60
2018-12-13T07:15:12.743Z,56.70
2018-12-13T07:16:12.744Z,56.50
2018-12-13T07:17:12.751Z,52.50
2018-12-13T07:18:12.711Z,53.60
2018-12-13T07:19:12.735Z,54.50
2018-12-13T07:20:12.684Z,53.60
2018-12-13T07:21:12.687Z,55.20
2018-12-13T07:22:12.656Z,52.50
2018-12-13T07:23:12.664Z,56.00
2018-12-13T07:24:12.635Z,56.00
2018-12-13T07:25:12.655Z,53.40
2018-12-13T07:26:12.642Z,54.30
2018-12-13T07:27:12.642Z,55.00
2018-12-13T07:28:12.597Z,55.00
2018-12-13T07:29:12.614Z,56.40
2018-12-13T07:30:12.569Z,53.80
2018-12-13T07:31:12.568Z,52.40
2018-12-13T07:32:12.571Z,55.40
2018-12-13T07:33:12.541Z,51.20
2018-12-13T07:34:12.656Z,53.60
2018-12-13T07:35:12.510Z,50.10
2018-12-13T07:36:12.516Z,48.90
2018-12-13T07:37:12.511Z,49.10
2018-12-13T07:38:14.376Z,48.80
2018-12-13T07:39:12.474Z,47.00
2018-12-13T07:40:12.469Z,42.80
2018-12-13T07:41:12.461Z,44.10
2018-12-13T07:42:12.577Z,45.40
2018-12-13T07:43:12.430Z,40.20
2018-12-13T07:44:12.417Z,46.20
2018-12-13T07:45:12.405Z,43.30
2018-12-13T07:46:12.390Z,43.90
2018-12-13T07:47:12.393Z,44.00
2018-12-13T07:48:12.363Z,45.20
2018-12-13T07:49:12.374Z,44.60
2018-12-13T07:50:12.341Z,47.30
2018-12-13T07:51:12.331Z,46.40
2018-12-13T07:52:12.354Z,49.30
2018-12-13T07:53:12.322Z,50.10
2018-12-13T07:54:12.300Z,46.80
2018-12-13T07:55:12.292Z,46.00
2018-12-13T07:56:12.293Z,47.00
2018-12-13T07:57:12.311Z,47.60
2018-12-13T07:58:12.266Z,47.50
2018-12-13T07:59:12.248Z,49.30
2018-12-13T08:00:12.249Z,51.50
2018-12-13T08:01:12.237Z,50.10
2018-12-13T08:02:12.271Z,48.70
2018-12-13T08:03:12.207Z,51.00
2018-12-13T08:04:12.241Z,47.80
2018-12-13T08:05:12.209Z,46.80
2018-12-13T08:06:12.179Z,44.30
2018-12-13T08:07:12.187Z,45.20
2018-12-13T08:08:12.148Z,46.50
2018-12-13T08:09:12.136Z,47.40
2018-12-13T08:10:12.142Z,49.60
2018-12-13T08:11:12.119Z,49.60
2018-12-13T08:12:12.129Z,49.90
2018-12-13T08:13:12.136Z,47.80
2018-12-13T08:14:12.104Z,48.70
2018-12-13T08:15:12.082Z,48.00
2018-12-13T08:16:12.073Z,49.50
2018-12-13T08:17:12.072Z,47.10
2018-12-13T08:18:12.049Z,47.50
2018-12-13T08:19:12.032Z,50.20
2018-12-13T08:20:12.040Z,51.30
2018-12-13T08:21:12.003Z,47.90
2018-12-13T08:22:12.052Z,48.30
2018-12-13T08:23:11.996Z,50.10
2018-12-13T08:24:11.991Z,48.10
2018-12-13T08:25:11.981Z,45.00
2018-12-13T08:26:11.960Z,46.70
2018-12-13T08:27:11.969Z,50.40
2018-12-13T08:28:11.938Z,46.60
2018-12-13T08:29:11.924Z,44.70
2018-12-13T08:30:11.906Z,45.20
2018-12-13T08:31:11.906Z,46.00
2018-12-13T08:32:11.897Z,44.60
2018-12-13T08:33:11.908Z,47.00
2018-12-13T08:34:11.863Z,48.00
2018-12-13T08:35:11.863Z,44.90
2018-12-13T08:36:11.926Z,47.50
2018-12-13T08:37:11.841Z,44.40
2018-12-13T08:38:11.835Z,46.60
2018-12-13T08:39:11.821Z,44.40
2018-12-13T08:40:11.810Z,47.00
2018-12-13T08:41:11.791Z,44.30
2018-12-13T08:42:11.904Z,45.60
2018-12-13T08:43:11.801Z,42.70
2018-12-13T08:44:11.779Z,43.50
2018-12-13T08:45:11.747Z,45.10
2018-12-13T08:46:11.738Z,44.40
2018-12-13T08:47:11.726Z,49.10
2018-12-13T08:48:11.734Z,46.00
2018-12-13T08:49:11.707Z,45.90
2018-12-13T08:50:11.691Z,43.40
2018-12-13T08:51:11.693Z,46.10
2018-12-13T08:52:11.688Z,47.30
2018-12-13T08:53:11.702Z,43.40
2018-12-13T08:54:11.646Z,48.00
2018-12-13T08:55:11.647Z,43.70
2018-12-13T08:56:11.626Z,46.00
2018-12-13T08:57:11.628Z,43.80
2018-12-13T08:58:11.630Z,44.00
2018-12-13T08:59:11.590Z,43.80
2018-12-13T09:00:11.584Z,43.90
2018-12-13T09:01:11.596Z,41.80
2018-12-13T09:02:11.570Z,42.90
2018-12-13T09:03:11.574Z,43.40
2018-12-13T09:04:11.538Z,46.60
2018-12-13T09:05:11.531Z,47.00
2018-12-13T09:06:11.538Z,42.10
2018-12-13T09:07:11.526Z,43.60
2018-12-13T09:08:11.523Z,45.20
2018-12-13T09:09:11.516Z,43.50
2018-12-13T09:10:11.480Z,42.10
2018-12-13T09:11:11.479Z,44.30
2018-12-13T09:12:11.470Z,38.80
2018-12-13T09:13:11.457Z,42.40
2018-12-13T09:14:11.438Z,43.30
2018-12-13T09:15:11.425Z,43.00
2018-12-13T09:16:11.402Z,47.00
2018-12-13T09:17:11.404Z,46.90
2018-12-13T09:18:12.237Z,43.80
2018-12-13T09:19:11.390Z,46.00
2018-12-13T09:20:11.367Z,44.20
2018-12-13T09:21:11.361Z,46.30
2018-12-13T09:22:11.348Z,43.30
2018-12-13T09:23:11.349Z,40.50
2018-12-13T09:24:11.340Z,41.50
2018-12-13T09:25:11.339Z,41.60
2018-12-13T09:26:11.314Z,38.50
2018-12-13T09:27:11.283Z,36.90
2018-12-13T09:28:11.297Z,39.30
2018-12-13T09:29:11.272Z,35.40
2018-12-13T09:30:11.260Z,41.30
2018-12-13T09:31:11.257Z,36.10
2018-12-13T09:32:11.235Z,38.00
2018-12-13T09:33:11.334Z,37.60
2018-12-13T09:34:11.210Z,37.90
2018-12-13T09:35:11.210Z,36.00
2018-12-13T09:36:11.226Z,37.50
2018-12-13T09:37:11.194Z,34.20
2018-12-13T09:38:11.173Z,34.80
2018-12-13T09:39:11.187Z,38.00
2018-12-13T09:40:11.159Z,48.90
2018-12-13T09:41:11.150Z,46.40
2018-12-13T09:42:11.141Z,41.10
2018-12-13T09:43:11.105Z,37.30
2018-12-13T09:44:11.138Z,38.40
2018-12-13T09:45:11.102Z,34.40
2018-12-13T09:46:11.113Z,36.90
2018-12-13T09:47:11.063Z,35.80
2018-12-13T09:48:11.074Z,36.60
2018-12-13T09:49:11.071Z,32.00
2018-12-13T09:50:11.075Z,32.70
2018-12-13T09:51:11.018Z,35.20
2018-12-13T09:52:11.022Z,35.10
2018-12-13T09:53:11.000Z,34.90
2018-12-13T09:54:11.008Z,36.00
2018-12-13T09:55:10.990Z,34.50
2018-12-13T09:56:10.979Z,33.00
2018-12-13T09:57:10.962Z,37.20
2018-12-13T09:58:10.952Z,33.80
2018-12-13T09:59:10.967Z,33.90
2018-12-13T10:00:10.949Z,36.50
2018-12-13T10:01:10.920Z,36.50
2018-12-13T10:02:10.908Z,32.00
2018-12-13T10:03:10.900Z,35.90
2018-12-13T10:04:10.917Z,33.70
2018-12-13T10:05:10.915Z,34.10
2018-12-13T10:06:10.864Z,33.80
2018-12-13T10:07:10.854Z,34.90
2018-12-13T10:08:10.846Z,37.50
2018-12-13T10:09:10.842Z,32.80
2018-12-13T10:10:10.834Z,37.00
2018-12-13T10:11:10.827Z,36.10
2018-12-13T10:12:10.796Z,35.60
2018-12-13T10:13:10.892Z,37.10
2018-12-13T10:14:10.789Z,36.20
2018-12-13T10:15:10.785Z,37.00
2018-12-13T10:16:10.756Z,38.30
2018-12-13T10:17:10.755Z,35.10
2018-12-13T10:18:10.747Z,36.10
2018-12-13T10:19:10.737Z,35.40
2018-12-13T10:20:10.713Z,34.40
2018-12-13T10:21:10.701Z,35.80
2018-12-13T10:22:11.813Z,34.90
2018-12-13T10:23:10.696Z,38.40
2018-12-13T10:24:10.699Z,37.30
2018-12-13T10:25:10.664Z,38.40
2018-12-13T10:26:10.670Z,36.70
2018-12-13T10:27:10.636Z,32.70
2018-12-13T10:28:10.643Z,32.80
2018-12-13T10:29:10.643Z,34.50
2018-12-13T10:30:10.637Z,32.20
2018-12-13T10:31:10.591Z,33.40
2018-12-13T10:32:10.572Z,33.90
2018-12-13T10:33:10.569Z,33.90
2018-12-13T10:34:10.571Z,36.10
2018-12-13T10:35:11.491Z,32.10
2018-12-13T10:36:10.543Z,33.00
2018-12-13T10:37:10.527Z,32.40
2018-12-13T10:38:10.516Z,31.70
2018-12-13T10:39:10.511Z,32.70
2018-12-13T10:40:10.521Z,32.90
2018-12-13T10:41:10.499Z,34.80
2018-12-13T10:42:10.481Z,30.80
2018-12-13T10:43:10.471Z,32.50
2018-12-13T10:44:10.455Z,31.90
2018-12-13T10:45:10.503Z,31.30
2018-12-13T10:46:10.422Z,32.80
2018-12-13T10:47:10.429Z,33.60
2018-12-13T10:48:10.413Z,33.70
2018-12-13T10:49:10.407Z,32.70
2018-12-13T10:50:10.405Z,32.00
2018-12-13T10:51:10.372Z,34.90
2018-12-13T10:52:10.372Z,31.70
2018-12-13T10:53:10.367Z,33.80
2018-12-13T10:54:10.355Z,33.10
2018-12-13T10:55:10.353Z,33.70
2018-12-13T10:56:10.324Z,33.60
2018-12-13T10:57:10.310Z,31.30
2018-12-13T10:58:10.296Z,31.60
2018-12-13T10:59:10.286Z,32.10
2018-12-13T11:00:10.306Z,33.20
2018-12-13T11:01:10.262Z,28.90
2018-12-13T11:02:10.260Z,29.60
2018-12-13T11:03:10.239Z,30.10
2018-12-13T11:04:10.263Z,29.00
2018-12-13T11:05:10.246Z,31.10
2018-12-13T11:06:10.222Z,27.90
2018-12-13T11:07:10.206Z,30.20
2018-12-13T11:08:10.208Z,29.30
2018-12-13T11:09:10.181Z,28.10
2018-12-13T11:10:10.182Z,28.80
2018-12-13T11:11:10.161Z,28.60
2018-12-13T11:12:10.149Z,26.20
2018-12-13T11:13:10.149Z,27.50
2018-12-13T11:14:10.141Z,28.00
2018-12-13T11:15:10.138Z,28.30
2018-12-13T11:16:10.097Z,29.20
2018-12-13T11:17:10.109Z,31.10
2018-12-13T11:18:10.082Z,27.90
2018-12-13T11:19:10.079Z,32.00
2018-12-13T11:20:10.106Z,29.60
2018-12-13T11:21:10.063Z,28.50
2018-12-13T11:22:10.037Z,26.60
2018-12-13T11:23:10.055Z,28.20
2018-12-13T11:24:10.023Z,29.60
2018-12-13T11:25:10.015Z,24.60
2018-12-13T11:26:10.024Z,22.30
2018-12-13T11:27:10.001Z,24.80
2018-12-13T11:28:10.005Z,24.70
2018-12-13T11:29:09.982Z,27.00
2018-12-13T11:30:09.959Z,23.40
2018-12-13T11:31:09.955Z,24.50
2018-12-13T11:32:09.929Z,24.60
2018-12-13T11:33:09.912Z,26.50
2018-12-13T11:34:09.913Z,25.50
2018-12-13T11:35:09.904Z,26.50
2018-12-13T11:36:09.887Z,25.50
2018-12-13T11:37:09.867Z,24.00
2018-12-13T11:38:09.875Z,24.90
2018-12-13T11:39:09.858Z,25.30
2018-12-13T11:40:09.845Z,26.30
2018-12-13T11:41:09.857Z,26.20
2018-12-13T11:42:09.828Z,26.10
2018-12-13T11:43:09.793Z,27.40
2018-12-13T11:44:09.792Z,27.90
2018-12-13T11:45:09.786Z,26.00
2018-12-13T11:46:09.799Z,28.00
2018-12-13T11:47:09.803Z,28.50
2018-12-13T11:48:09.763Z,29.40
2018-12-13T11:49:12.262Z,27.90
2018-12-13T11:50:09.742Z,30.60
2018-12-13T11:51:09.733Z,27.50
2018-12-13T11:52:09.729Z,28.90
2018-12-13T11:53:09.704Z,30.80
2018-12-13T11:54:09.693Z,29.50
2018-12-13T11:55:09.682Z,30.10
2018-12-13T11:56:09.748Z,29.00
2018-12-13T11:57:09.660Z,29.50
2018-12-13T11:58:09.654Z,28.30
2018-12-13T11:59:09.634Z,29.50
2018-12-13T12:00:09.624Z,29.50
2018-12-13T12:01:09.610Z,28.60
2018-12-13T12:02:09.624Z,30.20
2018-12-13T12:03:09.594Z,31.40
2018-12-13T12:04:09.591Z,29.00
2018-12-13T12:05:09.570Z,28.70
2018-12-13T12:06:09.564Z,30.60
2018-12-13T12:07:09.565Z,29.70
2018-12-13T12:08:09.579Z,29.00
2018-12-13T12:09:12.386Z,30.80
2018-12-13T12:10:09.517Z,30.10
2018-12-13T12:11:09.500Z,30.00
2018-12-13T12:12:09.515Z,29.20
2018-12-13T12:13:09.481Z,30.70
2018-12-13T12:14:09.508Z,30.70
2018-12-13T12:15:09.495Z,33.30
2018-12-13T12:16:09.446Z,30.30
2018-12-13T12:17:09.470Z,31.00
2018-12-13T12:18:09.447Z,30.60
2018-12-13T12:19:09.419Z,32.90
2018-12-13T12:20:09.417Z,35.60
2018-12-13T12:21:09.393Z,34.20
2018-12-13T12:22:09.400Z,34.60
2018-12-13T12:23:09.376Z,34.30
2018-12-13T12:24:09.363Z,33.50
2018-12-13T12:25:09.356Z,35.60
2018-12-13T12:26:09.340Z,36.30
2018-12-13T12:27:09.346Z,34.00
2018-12-13T12:28:09.337Z,35.70
2018-12-13T12:29:09.311Z,33.40
2018-12-13T12:30:09.347Z,35.30
2018-12-13T12:31:09.286Z,34.50
2018-12-13T12:32:09.293Z,38.10
2018-12-13T12:33:09.267Z,37.20
2018-12-13T12:34:09.248Z,34.90
2018-12-13T12:35:09.251Z,36.90
2018-12-13T12:36:09.243Z,34.20
2018-12-13T12:37:09.253Z,38.20
2018-12-13T12:38:09.210Z,38.70
2018-12-13T12:39:09.208Z,36.20
2018-12-13T12:40:09.209Z,36.70
2018-12-13T12:41:09.177Z,36.40
2018-12-13T12:42:09.193Z,39.70
2018-12-13T12:43:09.158Z,39.60
2018-12-13T12:44:09.160Z,38.70
2018-12-13T12:45:09.133Z,37.10
2018-12-13T12:46:09.127Z,38.20
2018-12-13T12:47:09.135Z,38.60
2018-12-13T12:48:09.098Z,38.70
2018-12-13T12:49:09.098Z,37.60
2018-12-13T12:50:09.082Z,44.90
2018-12-13T12:51:09.117Z,38.70
2018-12-13T12:52:09.165Z,39.10